sensor_id;sensor_type;location;lat;lon;timestamp;P1;durP1;ratioP1;P2;durP2;ratioP2
16450;SDS011;12243;42.708;23.310;2022-08-03T00:02:09;2.13;;;2.03;;
16450;SDS011;12243;42.708;23.310;2022-08-03T00:04:37;2.10;;;2.00;;
16450;SDS011;12243;42.708;23.310;2022-08-03T00:07:04;2.20;;;2.10;;
16450;SDS011;12243;42.708;23.310;2022-08-03T00:09:31;2.17;;;2.08;;
16450;SDS011;12243;42.708;23.310;2022-08-03T00:11:57;3.10;;;2.00;;
16450;SDS011;12243;42.708;23.310;2022-08-03T00:14:24;2.25;;;2.00;;
16450;SDS011;12243;42.708;23.310;2022-08-03T00:16:51;2.08;;;1.92;;
16450;SDS011;12243;42.708;23.310;2022-08-03T00:19:18;2.58;;;2.38;;
16450;SDS011;12243;42.708;23.310;2022-08-03T00:21:46;2.20;;;2.10;;
16450;SDS011;12243;42.708;23.310;2022-08-03T00:24:13;2.60;;;2.40;;
16450;SDS011;12243;42.708;23.310;2022-08-03T00:26:40;5.22;;;2.20;;
16450;SDS011;12243;42.708;23.310;2022-08-03T00:29:07;2.42;;;2.22;;
16450;SDS011;12243;42.708;23.310;2022-08-03T00:31:34;3.30;;;2.33;;
16450;SDS011;12243;42.708;23.310;2022-08-03T00:34:00;2.60;;;2.40;;
16450;SDS011;12243;42.708;23.310;2022-08-03T00:36:27;2.22;;;2.13;;
16450;SDS011;12243;42.708;23.310;2022-08-03T00:38:55;2.40;;;2.30;;
16450;SDS011;12243;42.708;23.310;2022-08-03T00:41:22;3.08;;;2.80;;
16450;SDS011;12243;42.708;23.310;2022-08-03T00:43:49;2.47;;;2.28;;
16450;SDS011;12243;42.708;23.310;2022-08-03T00:46:16;2.40;;;2.20;;
16450;SDS011;12243;42.708;23.310;2022-08-03T00:48:43;2.47;;;2.38;;
16450;SDS011;12243;42.708;23.310;2022-08-03T00:51:09;2.80;;;2.17;;
16450;SDS011;12243;42.708;23.310;2022-08-03T00:53:36;2.63;;;2.50;;
16450;SDS011;12243;42.708;23.310;2022-08-03T00:56:05;2.50;;;2.35;;
16450;SDS011;12243;42.708;23.310;2022-08-03T00:58:32;2.33;;;2.22;;
16450;SDS011;12243;42.708;23.310;2022-08-03T01:00:58;3.80;;;1.98;;
16450;SDS011;12243;42.708;23.310;2022-08-03T01:03:25;3.47;;;2.28;;
16450;SDS011;12243;42.708;23.310;2022-08-03T01:05:54;1.98;;;1.88;;
16450;SDS011;12243;42.708;23.310;2022-08-03T01:08:27;2.60;;;2.25;;
16450;SDS011;12243;42.708;23.310;2022-08-03T01:11:02;4.70;;;2.20;;
16450;SDS011;12243;42.708;23.310;2022-08-03T01:13:38;2.22;;;2.03;;
16450;SDS011;12243;42.708;23.310;2022-08-03T01:16:14;3.30;;;2.10;;
16450;SDS011;12243;42.708;23.310;2022-08-03T01:18:50;2.05;;;1.95;;
16450;SDS011;12243;42.708;23.310;2022-08-03T01:21:31;2.47;;;2.10;;
16450;SDS011;12243;42.708;23.310;2022-08-03T01:24:21;4.70;;;2.25;;
16450;SDS011;12243;42.708;23.310;2022-08-03T01:27:06;2.47;;;2.28;;
16450;SDS011;12243;42.708;23.310;2022-08-03T01:29:57;2.33;;;2.22;;
16450;SDS011;12243;42.708;23.310;2022-08-03T01:32:33;2.30;;;2.10;;
16450;SDS011;12243;42.708;23.310;2022-08-03T01:35:05;2.72;;;2.13;;
16450;SDS011;12243;42.708;23.310;2022-08-03T01:37:37;2.30;;;2.20;;
16450;SDS011;12243;42.708;23.310;2022-08-03T01:40:07;2.65;;;1.88;;
16450;SDS011;12243;42.708;23.310;2022-08-03T01:42:37;4.07;;;2.20;;
16450;SDS011;12243;42.708;23.310;2022-08-03T01:45:08;2.25;;;1.98;;
16450;SDS011;12243;42.708;23.310;2022-08-03T01:47:38;2.40;;;2.30;;
16450;SDS011;12243;42.708;23.310;2022-08-03T01:50:06;6.03;;;1.98;;
16450;SDS011;12243;42.708;23.310;2022-08-03T01:52:36;2.17;;;2.08;;
16450;SDS011;12243;42.708;23.310;2022-08-03T01:55:06;2.92;;;1.90;;
16450;SDS011;12243;42.708;23.310;2022-08-03T01:57:34;3.22;;;2.15;;
16450;SDS011;12243;42.708;23.310;2022-08-03T02:00:04;2.10;;;2.00;;
16450;SDS011;12243;42.708;23.310;2022-08-03T02:02:38;2.20;;;2.10;;
16450;SDS011;12243;42.708;23.310;2022-08-03T02:05:07;2.35;;;2.17;;
16450;SDS011;12243;42.708;23.310;2022-08-03T02:07:38;2.67;;;2.40;;
16450;SDS011;12243;42.708;23.310;2022-08-03T02:10:07;2.35;;;2.17;;
16450;SDS011;12243;42.708;23.310;2022-08-03T02:12:37;2.22;;;2.08;;
16450;SDS011;12243;42.708;23.310;2022-08-03T02:15:05;2.60;;;2.40;;
16450;SDS011;12243;42.708;23.310;2022-08-03T02:17:33;2.60;;;2.28;;
16450;SDS011;12243;42.708;23.310;2022-08-03T02:20:03;3.42;;;2.00;;
16450;SDS011;12243;42.708;23.310;2022-08-03T02:22:32;2.60;;;2.42;;
16450;SDS011;12243;42.708;23.310;2022-08-03T02:25:00;2.30;;;1.98;;
16450;SDS011;12243;42.708;23.310;2022-08-03T02:27:27;2.28;;;2.20;;
16450;SDS011;12243;42.708;23.310;2022-08-03T02:29:57;3.33;;;2.20;;
16450;SDS011;12243;42.708;23.310;2022-08-03T02:32:31;4.53;;;2.38;;
16450;SDS011;12243;42.708;23.310;2022-08-03T02:35:03;3.38;;;2.25;;
16450;SDS011;12243;42.708;23.310;2022-08-03T02:37:37;2.25;;;2.00;;
16450;SDS011;12243;42.708;23.310;2022-08-03T02:40:08;2.05;;;2.00;;
16450;SDS011;12243;42.708;23.310;2022-08-03T02:42:37;3.45;;;2.03;;
16450;SDS011;12243;42.708;23.310;2022-08-03T02:45:08;1.98;;;1.88;;
16450;SDS011;12243;42.708;23.310;2022-08-03T02:47:38;2.20;;;2.10;;
16450;SDS011;12243;42.708;23.310;2022-08-03T02:50:09;2.00;;;1.90;;
16450;SDS011;12243;42.708;23.310;2022-08-03T02:52:37;2.15;;;1.83;;
16450;SDS011;12243;42.708;23.310;2022-08-03T02:55:07;2.33;;;2.10;;
16450;SDS011;12243;42.708;23.310;2022-08-03T02:57:35;2.17;;;1.98;;
16450;SDS011;12243;42.708;23.310;2022-08-03T03:00:05;2.20;;;2.10;;
16450;SDS011;12243;42.708;23.310;2022-08-03T03:02:33;2.13;;;1.92;;
16450;SDS011;12243;42.708;23.310;2022-08-03T03:05:02;2.03;;;1.92;;
16450;SDS011;12243;42.708;23.310;2022-08-03T03:07:31;2.33;;;2.15;;
16450;SDS011;12243;42.708;23.310;2022-08-03T03:09:59;2.60;;;2.40;;
16450;SDS011;12243;42.708;23.310;2022-08-03T03:12:27;2.20;;;2.00;;
16450;SDS011;12243;42.708;23.310;2022-08-03T03:14:55;2.55;;;2.33;;
16450;SDS011;12243;42.708;23.310;2022-08-03T03:17:22;3.22;;;2.88;;
16450;SDS011;12243;42.708;23.310;2022-08-03T03:19:50;2.90;;;2.80;;
16450;SDS011;12243;42.708;23.310;2022-08-03T03:22:17;5.70;;;2.60;;
16450;SDS011;12243;42.708;23.310;2022-08-03T03:24:46;3.50;;;2.50;;
16450;SDS011;12243;42.708;23.310;2022-08-03T03:27:15;2.42;;;2.20;;
16450;SDS011;12243;42.708;23.310;2022-08-03T03:29:43;3.17;;;2.47;;
16450;SDS011;12243;42.708;23.310;2022-08-03T03:32:10;2.50;;;2.30;;
16450;SDS011;12243;42.708;23.310;2022-08-03T03:34:38;2.60;;;2.40;;
16450;SDS011;12243;42.708;23.310;2022-08-03T03:37:05;2.50;;;2.40;;
16450;SDS011;12243;42.708;23.310;2022-08-03T03:39:32;3.85;;;2.42;;
16450;SDS011;12243;42.708;23.310;2022-08-03T03:42:02;3.28;;;2.00;;
16450;SDS011;12243;42.708;23.310;2022-08-03T03:44:29;2.88;;;2.40;;
16450;SDS011;12243;42.708;23.310;2022-08-03T03:46:57;5.50;;;2.60;;
16450;SDS011;12243;42.708;23.310;2022-08-03T03:49:24;3.72;;;2.40;;
16450;SDS011;12243;42.708;23.310;2022-08-03T03:51:51;2.38;;;2.17;;
16450;SDS011;12243;42.708;23.310;2022-08-03T03:54:19;2.58;;;2.33;;
16450;SDS011;12243;42.708;23.310;2022-08-03T03:56:46;3.85;;;2.35;;
16450;SDS011;12243;42.708;23.310;2022-08-03T03:59:14;4.70;;;2.83;;
16450;SDS011;12243;42.708;23.310;2022-08-03T04:01:41;3.50;;;2.42;;
16450;SDS011;12243;42.708;23.310;2022-08-03T04:04:08;3.00;;;2.72;;
16450;SDS011;12243;42.708;23.310;2022-08-03T04:06:52;3.65;;;2.40;;
16450;SDS011;12243;42.708;23.310;2022-08-03T04:09:37;3.30;;;3.03;;
16450;SDS011;12243;42.708;23.310;2022-08-03T04:12:25;3.15;;;2.50;;
16450;SDS011;12243;42.708;23.310;2022-08-03T04:14:56;4.20;;;2.85;;
16450;SDS011;12243;42.708;23.310;2022-08-03T04:17:24;2.97;;;2.80;;
16450;SDS011;12243;42.708;23.310;2022-08-03T04:20:18;5.80;;;3.50;;
16450;SDS011;12243;42.708;23.310;2022-08-03T04:22:47;5.60;;;2.95;;
16450;SDS011;12243;42.708;23.310;2022-08-03T04:25:16;5.15;;;3.22;;
16450;SDS011;12243;42.708;23.310;2022-08-03T04:27:45;6.30;;;3.30;;
16450;SDS011;12243;42.708;23.310;2022-08-03T04:30:18;3.28;;;2.97;;
16450;SDS011;12243;42.708;23.310;2022-08-03T04:32:45;6.38;;;2.92;;
16450;SDS011;12243;42.708;23.310;2022-08-03T04:35:16;3.30;;;3.00;;
16450;SDS011;12243;42.708;23.310;2022-08-03T04:37:44;4.25;;;3.55;;
16450;SDS011;12243;42.708;23.310;2022-08-03T04:40:13;4.90;;;3.75;;
16450;SDS011;12243;42.708;23.310;2022-08-03T04:42:45;6.68;;;4.15;;
16450;SDS011;12243;42.708;23.310;2022-08-03T04:45:14;6.30;;;3.90;;
16450;SDS011;12243;42.708;23.310;2022-08-03T04:47:44;4.60;;;4.10;;
16450;SDS011;12243;42.708;23.310;2022-08-03T04:50:12;6.28;;;4.20;;
16450;SDS011;12243;42.708;23.310;2022-08-03T04:52:39;7.00;;;4.15;;
16450;SDS011;12243;42.708;23.310;2022-08-03T04:55:07;4.15;;;3.58;;
16450;SDS011;12243;42.708;23.310;2022-08-03T04:57:34;4.80;;;3.38;;
16450;SDS011;12243;42.708;23.310;2022-08-03T05:00:01;5.53;;;3.55;;
16450;SDS011;12243;42.708;23.310;2022-08-03T05:02:28;3.72;;;3.40;;
16450;SDS011;12243;42.708;23.310;2022-08-03T05:04:57;5.53;;;3.70;;
16450;SDS011;12243;42.708;23.310;2022-08-03T05:07:24;4.10;;;3.78;;
16450;SDS011;12243;42.708;23.310;2022-08-03T05:09:51;7.85;;;3.80;;
16450;SDS011;12243;42.708;23.310;2022-08-03T05:12:18;11.23;;;3.80;;
16450;SDS011;12243;42.708;23.310;2022-08-03T05:14:45;6.78;;;3.60;;
16450;SDS011;12243;42.708;23.310;2022-08-03T05:17:12;4.90;;;3.35;;
16450;SDS011;12243;42.708;23.310;2022-08-03T05:19:38;5.30;;;3.13;;
16450;SDS011;12243;42.708;23.310;2022-08-03T05:22:07;5.68;;;3.40;;
16450;SDS011;12243;42.708;23.310;2022-08-03T05:24:33;4.82;;;3.10;;
16450;SDS011;12243;42.708;23.310;2022-08-03T05:27:00;6.10;;;3.90;;
16450;SDS011;12243;42.708;23.310;2022-08-03T05:29:27;8.40;;;4.00;;
16450;SDS011;12243;42.708;23.310;2022-08-03T05:31:54;9.75;;;3.95;;
16450;SDS011;12243;42.708;23.310;2022-08-03T05:34:21;4.68;;;3.75;;
16450;SDS011;12243;42.708;23.310;2022-08-03T05:36:47;4.25;;;3.83;;
16450;SDS011;12243;42.708;23.310;2022-08-03T05:39:16;10.80;;;3.67;;
16450;SDS011;12243;42.708;23.310;2022-08-03T05:41:42;7.13;;;4.05;;
16450;SDS011;12243;42.708;23.310;2022-08-03T05:44:09;9.13;;;4.00;;
16450;SDS011;12243;42.708;23.310;2022-08-03T05:46:36;6.65;;;4.30;;
16450;SDS011;12243;42.708;23.310;2022-08-03T05:49:03;5.78;;;4.18;;
16450;SDS011;12243;42.708;23.310;2022-08-03T05:51:30;7.07;;;4.22;;
16450;SDS011;12243;42.708;23.310;2022-08-03T05:53:56;15.82;;;4.60;;
16450;SDS011;12243;42.708;23.310;2022-08-03T05:56:25;9.05;;;4.75;;
16450;SDS011;12243;42.708;23.310;2022-08-03T05:58:51;7.75;;;4.10;;
16450;SDS011;12243;42.708;23.310;2022-08-03T06:01:19;11.95;;;3.97;;
16450;SDS011;12243;42.708;23.310;2022-08-03T06:03:47;9.23;;;4.28;;
16450;SDS011;12243;42.708;23.310;2022-08-03T06:06:14;7.60;;;4.13;;
16450;SDS011;12243;42.708;23.310;2022-08-03T06:08:41;9.32;;;4.15;;
16450;SDS011;12243;42.708;23.310;2022-08-03T06:11:09;12.43;;;4.05;;
16450;SDS011;12243;42.708;23.310;2022-08-03T06:13:37;9.40;;;4.65;;
16450;SDS011;12243;42.708;23.310;2022-08-03T06:16:04;10.15;;;4.30;;
16450;SDS011;12243;42.708;23.310;2022-08-03T06:18:31;4.57;;;3.50;;
16450;SDS011;12243;42.708;23.310;2022-08-03T06:20:58;5.80;;;4.30;;
16450;SDS011;12243;42.708;23.310;2022-08-03T06:23:25;8.18;;;4.38;;
16450;SDS011;12243;42.708;23.310;2022-08-03T06:25:52;7.07;;;4.18;;
16450;SDS011;12243;42.708;23.310;2022-08-03T06:28:18;7.65;;;4.07;;
16450;SDS011;12243;42.708;23.310;2022-08-03T06:30:47;7.72;;;4.10;;
16450;SDS011;12243;42.708;23.310;2022-08-03T06:33:14;4.13;;;3.83;;
16450;SDS011;12243;42.708;23.310;2022-08-03T06:35:40;7.25;;;4.03;;
16450;SDS011;12243;42.708;23.310;2022-08-03T06:38:07;6.05;;;4.00;;
16450;SDS011;12243;42.708;23.310;2022-08-03T06:40:34;13.73;;;4.88;;
16450;SDS011;12243;42.708;23.310;2022-08-03T06:43:04;8.05;;;4.45;;
16450;SDS011;12243;42.708;23.310;2022-08-03T06:45:32;4.50;;;3.97;;
16450;SDS011;12243;42.708;23.310;2022-08-03T06:48:01;12.80;;;4.07;;
16450;SDS011;12243;42.708;23.310;2022-08-03T06:50:29;9.48;;;5.35;;
16450;SDS011;12243;42.708;23.310;2022-08-03T06:52:56;8.05;;;4.55;;
16450;SDS011;12243;42.708;23.310;2022-08-03T06:55:24;5.50;;;3.65;;
16450;SDS011;12243;42.708;23.310;2022-08-03T06:57:50;11.32;;;4.43;;
16450;SDS011;12243;42.708;23.310;2022-08-03T07:00:17;5.68;;;4.57;;
16450;SDS011;12243;42.708;23.310;2022-08-03T07:02:45;9.05;;;4.80;;
16450;SDS011;12243;42.708;23.310;2022-08-03T07:05:14;6.63;;;4.68;;
16450;SDS011;12243;42.708;23.310;2022-08-03T07:07:41;8.18;;;4.32;;
16450;SDS011;12243;42.708;23.310;2022-08-03T07:10:08;9.07;;;4.10;;
16450;SDS011;12243;42.708;23.310;2022-08-03T07:12:37;6.35;;;4.18;;
16450;SDS011;12243;42.708;23.310;2022-08-03T07:15:04;4.85;;;4.20;;
16450;SDS011;12243;42.708;23.310;2022-08-03T07:17:33;10.73;;;3.90;;
16450;SDS011;12243;42.708;23.310;2022-08-03T07:20:01;4.07;;;3.35;;
16450;SDS011;12243;42.708;23.310;2022-08-03T07:22:32;6.40;;;4.25;;
16450;SDS011;12243;42.708;23.310;2022-08-03T07:24:59;6.15;;;3.40;;
16450;SDS011;12243;42.708;23.310;2022-08-03T07:27:26;4.82;;;3.28;;
16450;SDS011;12243;42.708;23.310;2022-08-03T07:29:54;6.93;;;3.85;;
16450;SDS011;12243;42.708;23.310;2022-08-03T07:32:21;5.97;;;3.05;;
16450;SDS011;12243;42.708;23.310;2022-08-03T07:34:48;5.25;;;3.40;;
16450;SDS011;12243;42.708;23.310;2022-08-03T07:37:15;5.63;;;3.65;;
16450;SDS011;12243;42.708;23.310;2022-08-03T07:39:44;5.03;;;3.17;;
16450;SDS011;12243;42.708;23.310;2022-08-03T07:42:11;6.25;;;3.13;;
16450;SDS011;12243;42.708;23.310;2022-08-03T07:44:37;3.55;;;3.25;;
16450;SDS011;12243;42.708;23.310;2022-08-03T07:47:04;3.53;;;3.22;;
16450;SDS011;12243;42.708;23.310;2022-08-03T07:49:32;3.38;;;3.03;;
16450;SDS011;12243;42.708;23.310;2022-08-03T07:51:58;3.75;;;3.10;;
16450;SDS011;12243;42.708;23.310;2022-08-03T07:54:44;6.45;;;3.10;;
16450;SDS011;12243;42.708;23.310;2022-08-03T07:57:10;3.88;;;3.25;;
16450;SDS011;12243;42.708;23.310;2022-08-03T07:59:37;3.30;;;3.00;;
16450;SDS011;12243;42.708;23.310;2022-08-03T08:02:05;2.60;;;2.40;;
16450;SDS011;12243;42.708;23.310;2022-08-03T08:04:32;5.97;;;2.60;;
16450;SDS011;12243;42.708;23.310;2022-08-03T08:06:59;4.57;;;2.60;;
16450;SDS011;12243;42.708;23.310;2022-08-03T08:09:26;3.22;;;2.65;;
16450;SDS011;12243;42.708;23.310;2022-08-03T08:11:54;5.40;;;2.80;;
16450;SDS011;12243;42.708;23.310;2022-08-03T08:14:21;5.40;;;3.08;;
16450;SDS011;12243;42.708;23.310;2022-08-03T08:16:47;4.68;;;2.97;;
16450;SDS011;12243;42.708;23.310;2022-08-03T08:19:14;5.88;;;2.72;;
16450;SDS011;12243;42.708;23.310;2022-08-03T08:21:41;2.65;;;2.40;;
16450;SDS011;12243;42.708;23.310;2022-08-03T08:24:08;5.28;;;3.40;;
16450;SDS011;12243;42.708;23.310;2022-08-03T08:26:35;3.47;;;2.20;;
16450;SDS011;12243;42.708;23.310;2022-08-03T08:29:04;2.83;;;2.47;;
16450;SDS011;12243;42.708;23.310;2022-08-03T08:31:31;4.05;;;2.55;;
16450;SDS011;12243;42.708;23.310;2022-08-03T08:33:57;3.40;;;3.10;;
16450;SDS011;12243;42.708;23.310;2022-08-03T08:36:29;6.65;;;4.55;;
16450;SDS011;12243;42.708;23.310;2022-08-03T08:38:56;4.35;;;2.30;;
16450;SDS011;12243;42.708;23.310;2022-08-03T08:41:23;3.30;;;2.92;;
16450;SDS011;12243;42.708;23.310;2022-08-03T08:43:51;5.35;;;3.28;;
16450;SDS011;12243;42.708;23.310;2022-08-03T08:46:20;7.53;;;2.47;;
16450;SDS011;12243;42.708;23.310;2022-08-03T08:48:47;3.83;;;3.45;;
16450;SDS011;12243;42.708;23.310;2022-08-03T08:51:15;4.30;;;3.85;;
16450;SDS011;12243;42.708;23.310;2022-08-03T08:53:46;3.50;;;2.60;;
16450;SDS011;12243;42.708;23.310;2022-08-03T08:56:16;2.58;;;2.30;;
16450;SDS011;12243;42.708;23.310;2022-08-03T08:58:46;3.45;;;2.85;;
16450;SDS011;12243;42.708;23.310;2022-08-03T09:01:19;2.90;;;2.70;;
16450;SDS011;12243;42.708;23.310;2022-08-03T09:03:47;2.42;;;2.28;;
16450;SDS011;12243;42.708;23.310;2022-08-03T09:06:14;2.15;;;2.05;;
16450;SDS011;12243;42.708;23.310;2022-08-03T09:08:41;2.40;;;2.30;;
16450;SDS011;12243;42.708;23.310;2022-08-03T09:11:08;2.53;;;2.33;;
16450;SDS011;12243;42.708;23.310;2022-08-03T09:13:35;2.70;;;2.50;;
16450;SDS011;12243;42.708;23.310;2022-08-03T09:16:09;4.43;;;2.10;;
16450;SDS011;12243;42.708;23.310;2022-08-03T09:18:41;2.80;;;2.60;;
16450;SDS011;12243;42.708;23.310;2022-08-03T09:21:13;2.47;;;2.13;;
16450;SDS011;12243;42.708;23.310;2022-08-03T09:23:44;2.33;;;1.88;;
16450;SDS011;12243;42.708;23.310;2022-08-03T09:26:12;3.40;;;2.20;;
16450;SDS011;12243;42.708;23.310;2022-08-03T09:28:46;2.08;;;1.98;;
16450;SDS011;12243;42.708;23.310;2022-08-03T09:31:19;2.22;;;2.10;;
16450;SDS011;12243;42.708;23.310;2022-08-03T09:33:56;3.38;;;2.35;;
16450;SDS011;12243;42.708;23.310;2022-08-03T09:36:35;3.60;;;2.65;;
16450;SDS011;12243;42.708;23.310;2022-08-03T09:39:04;2.70;;;2.60;;
16450;SDS011;12243;42.708;23.310;2022-08-03T09:41:32;2.75;;;2.50;;
16450;SDS011;12243;42.708;23.310;2022-08-03T09:43:59;2.83;;;2.60;;
16450;SDS011;12243;42.708;23.310;2022-08-03T09:46:26;2.33;;;2.22;;
16450;SDS011;12243;42.708;23.310;2022-08-03T09:49:10;2.55;;;2.45;;
16450;SDS011;12243;42.708;23.310;2022-08-03T09:51:38;2.80;;;2.70;;
16450;SDS011;12243;42.708;23.310;2022-08-03T09:54:05;2.58;;;2.20;;
16450;SDS011;12243;42.708;23.310;2022-08-03T09:56:39;2.33;;;2.22;;
16450;SDS011;12243;42.708;23.310;2022-08-03T09:59:08;4.13;;;2.35;;
16450;SDS011;12243;42.708;23.310;2022-08-03T10:01:35;2.03;;;2.03;;
16450;SDS011;12243;42.708;23.310;2022-08-03T10:04:03;2.42;;;2.30;;
16450;SDS011;12243;42.708;23.310;2022-08-03T10:06:31;3.20;;;2.20;;
16450;SDS011;12243;42.708;23.310;2022-08-03T10:09:06;2.30;;;2.10;;
16450;SDS011;12243;42.708;23.310;2022-08-03T10:11:34;2.45;;;2.22;;
16450;SDS011;12243;42.708;23.310;2022-08-03T10:14:02;2.33;;;2.13;;
16450;SDS011;12243;42.708;23.310;2022-08-03T10:16:32;2.20;;;2.20;;
16450;SDS011;12243;42.708;23.310;2022-08-03T10:19:00;2.60;;;2.40;;
16450;SDS011;12243;42.708;23.310;2022-08-03T10:21:28;3.55;;;2.55;;
16450;SDS011;12243;42.708;23.310;2022-08-03T10:23:59;3.50;;;3.30;;
16450;SDS011;12243;42.708;23.310;2022-08-03T10:26:29;2.50;;;2.30;;
16450;SDS011;12243;42.708;23.310;2022-08-03T10:28:58;2.38;;;2.15;;
16450;SDS011;12243;42.708;23.310;2022-08-03T10:31:29;2.10;;;2.10;;
16450;SDS011;12243;42.708;23.310;2022-08-03T10:34:00;2.80;;;2.00;;
16450;SDS011;12243;42.708;23.310;2022-08-03T10:36:30;2.30;;;2.10;;
16450;SDS011;12243;42.708;23.310;2022-08-03T10:39:02;4.95;;;2.40;;
16450;SDS011;12243;42.708;23.310;2022-08-03T10:41:30;3.17;;;2.20;;
16450;SDS011;12243;42.708;23.310;2022-08-03T10:44:02;2.15;;;2.10;;
16450;SDS011;12243;42.708;23.310;2022-08-03T10:46:32;4.32;;;2.50;;
16450;SDS011;12243;42.708;23.310;2022-08-03T10:49:00;2.40;;;2.30;;
16450;SDS011;12243;42.708;23.310;2022-08-03T10:51:28;2.38;;;2.20;;
16450;SDS011;12243;42.708;23.310;2022-08-03T10:53:56;3.05;;;2.30;;
16450;SDS011;12243;42.708;23.310;2022-08-03T10:56:40;2.60;;;2.50;;
16450;SDS011;12243;42.708;23.310;2022-08-03T11:02:29;1.90;;;1.80;;
16450;SDS011;12243;42.708;23.310;2022-08-03T11:05:33;2.15;;;1.95;;
16450;SDS011;12243;42.708;23.310;2022-08-03T11:08:21;3.00;;;2.05;;
16450;SDS011;12243;42.708;23.310;2022-08-03T11:10:53;2.80;;;2.10;;
16450;SDS011;12243;42.708;23.310;2022-08-03T11:13:23;2.60;;;2.40;;
16450;SDS011;12243;42.708;23.310;2022-08-03T11:15:53;2.35;;;2.25;;
16450;SDS011;12243;42.708;23.310;2022-08-03T11:18:22;2.08;;;1.88;;
16450;SDS011;12243;42.708;23.310;2022-08-03T11:20:49;1.90;;;1.90;;
16450;SDS011;12243;42.708;23.310;2022-08-03T11:23:18;2.00;;;1.80;;
16450;SDS011;12243;42.708;23.310;2022-08-03T11:26:12;2.28;;;2.17;;
16450;SDS011;12243;42.708;23.310;2022-08-03T11:28:42;1.90;;;1.80;;
16450;SDS011;12243;42.708;23.310;2022-08-03T11:34:16;2.97;;;2.00;;
16450;SDS011;12243;42.708;23.310;2022-08-03T11:39:46;2.17;;;2.08;;
16450;SDS011;12243;42.708;23.310;2022-08-03T11:45:05;3.00;;;2.30;;
16450;SDS011;12243;42.708;23.310;2022-08-03T11:47:36;2.20;;;2.13;;
16450;SDS011;12243;42.708;23.310;2022-08-03T11:50:05;2.15;;;2.05;;
16450;SDS011;12243;42.708;23.310;2022-08-03T11:52:33;2.00;;;2.00;;
16450;SDS011;12243;42.708;23.310;2022-08-03T11:55:02;2.60;;;2.40;;
16450;SDS011;12243;42.708;23.310;2022-08-03T11:57:35;2.10;;;2.00;;
16450;SDS011;12243;42.708;23.310;2022-08-03T12:00:02;2.35;;;2.28;;
16450;SDS011;12243;42.708;23.310;2022-08-03T12:02:52;2.60;;;2.20;;
16450;SDS011;12243;42.708;23.310;2022-08-03T12:05:20;2.30;;;2.20;;
16450;SDS011;12243;42.708;23.310;2022-08-03T12:08:01;2.47;;;2.20;;
16450;SDS011;12243;42.708;23.310;2022-08-03T12:10:28;2.53;;;2.20;;
16450;SDS011;12243;42.708;23.310;2022-08-03T12:12:56;2.38;;;2.15;;
16450;SDS011;12243;42.708;23.310;2022-08-03T12:15:26;2.20;;;2.10;;
16450;SDS011;12243;42.708;23.310;2022-08-03T12:17:54;3.08;;;2.20;;
16450;SDS011;12243;42.708;23.310;2022-08-03T12:20:23;5.35;;;2.30;;
16450;SDS011;12243;42.708;23.310;2022-08-03T12:22:51;2.10;;;1.92;;
16450;SDS011;12243;42.708;23.310;2022-08-03T12:25:22;3.33;;;2.00;;
16450;SDS011;12243;42.708;23.310;2022-08-03T12:27:51;2.13;;;2.03;;
16450;SDS011;12243;42.708;23.310;2022-08-03T12:30:18;2.20;;;2.10;;
16450;SDS011;12243;42.708;23.310;2022-08-03T12:32:47;2.67;;;2.47;;
16450;SDS011;12243;42.708;23.310;2022-08-03T12:35:23;2.60;;;2.40;;
16450;SDS011;12243;42.708;23.310;2022-08-03T12:37:50;5.43;;;2.50;;
16450;SDS011;12243;42.708;23.310;2022-08-03T12:40:23;4.10;;;2.40;;
16450;SDS011;12243;42.708;23.310;2022-08-03T12:42:51;1.92;;;1.92;;
16450;SDS011;12243;42.708;23.310;2022-08-03T12:45:22;2.10;;;2.00;;
16450;SDS011;12243;42.708;23.310;2022-08-03T12:47:52;2.20;;;2.20;;
16450;SDS011;12243;42.708;23.310;2022-08-03T12:50:27;2.10;;;2.00;;
16450;SDS011;12243;42.708;23.310;2022-08-03T12:52:55;2.92;;;2.10;;
16450;SDS011;12243;42.708;23.310;2022-08-03T12:55:22;2.10;;;2.00;;
16450;SDS011;12243;42.708;23.310;2022-08-03T12:57:51;2.40;;;2.30;;
16450;SDS011;12243;42.708;23.310;2022-08-03T13:00:18;3.25;;;2.30;;
16450;SDS011;12243;42.708;23.310;2022-08-03T13:02:53;2.80;;;2.10;;
16450;SDS011;12243;42.708;23.310;2022-08-03T13:05:26;2.30;;;2.20;;
16450;SDS011;12243;42.708;23.310;2022-08-03T13:07:53;3.42;;;2.03;;
16450;SDS011;12243;42.708;23.310;2022-08-03T13:10:27;3.30;;;2.22;;
16450;SDS011;12243;42.708;23.310;2022-08-03T13:12:55;2.05;;;1.95;;
16450;SDS011;12243;42.708;23.310;2022-08-03T13:15:24;2.78;;;2.20;;
16450;SDS011;12243;42.708;23.310;2022-08-03T13:17:52;2.67;;;2.53;;
16450;SDS011;12243;42.708;23.310;2022-08-03T13:20:21;2.45;;;2.30;;
16450;SDS011;12243;42.708;23.310;2022-08-03T13:22:49;2.20;;;2.10;;
16450;SDS011;12243;42.708;23.310;2022-08-03T13:25:16;3.30;;;2.30;;
16450;SDS011;12243;42.708;23.310;2022-08-03T13:27:44;5.05;;;2.17;;
16450;SDS011;12243;42.708;23.310;2022-08-03T13:30:11;2.53;;;2.40;;
16450;SDS011;12243;42.708;23.310;2022-08-03T13:32:38;3.20;;;2.33;;
16450;SDS011;12243;42.708;23.310;2022-08-03T13:35:06;2.20;;;2.20;;
16450;SDS011;12243;42.708;23.310;2022-08-03T13:37:35;2.28;;;2.17;;
16450;SDS011;12243;42.708;23.310;2022-08-03T13:40:03;2.40;;;2.30;;
16450;SDS011;12243;42.708;23.310;2022-08-03T13:42:32;2.30;;;2.10;;
16450;SDS011;12243;42.708;23.310;2022-08-03T13:45:00;2.10;;;2.00;;
16450;SDS011;12243;42.708;23.310;2022-08-03T13:47:28;2.33;;;2.00;;
16450;SDS011;12243;42.708;23.310;2022-08-03T13:49:55;2.83;;;2.50;;
16450;SDS011;12243;42.708;23.310;2022-08-03T13:52:22;3.55;;;2.20;;
16450;SDS011;12243;42.708;23.310;2022-08-03T13:54:50;5.68;;;2.28;;
16450;SDS011;12243;42.708;23.310;2022-08-03T13:57:17;3.00;;;2.58;;
16450;SDS011;12243;42.708;23.310;2022-08-03T13:59:44;2.30;;;2.10;;
16450;SDS011;12243;42.708;23.310;2022-08-03T14:02:11;4.35;;;2.92;;
16450;SDS011;12243;42.708;23.310;2022-08-03T14:04:38;2.55;;;1.95;;
16450;SDS011;12243;42.708;23.310;2022-08-03T14:07:04;1.83;;;1.83;;
16450;SDS011;12243;42.708;23.310;2022-08-03T14:09:31;2.50;;;2.30;;
16450;SDS011;12243;42.708;23.310;2022-08-03T14:12:00;2.35;;;2.25;;
16450;SDS011;12243;42.708;23.310;2022-08-03T14:14:27;2.28;;;2.05;;
16450;SDS011;12243;42.708;23.310;2022-08-03T14:16:53;2.30;;;2.20;;
16450;SDS011;12243;42.708;23.310;2022-08-03T14:19:20;1.92;;;1.92;;
16450;SDS011;12243;42.708;23.310;2022-08-03T14:21:47;2.30;;;2.20;;
16450;SDS011;12243;42.708;23.310;2022-08-03T14:24:14;2.30;;;2.20;;
16450;SDS011;12243;42.708;23.310;2022-08-03T14:26:41;2.25;;;2.25;;
16450;SDS011;12243;42.708;23.310;2022-08-03T14:29:09;2.67;;;2.45;;
16450;SDS011;12243;42.708;23.310;2022-08-03T14:31:36;2.97;;;2.78;;
16450;SDS011;12243;42.708;23.310;2022-08-03T14:34:03;2.70;;;2.60;;
16450;SDS011;12243;42.708;23.310;2022-08-03T14:36:30;3.63;;;3.13;;
16450;SDS011;12243;42.708;23.310;2022-08-03T14:38:57;2.55;;;2.40;;
16450;SDS011;12243;42.708;23.310;2022-08-03T14:41:24;3.25;;;3.00;;
16450;SDS011;12243;42.708;23.310;2022-08-03T14:43:51;3.00;;;2.70;;
16450;SDS011;12243;42.708;23.310;2022-08-03T14:46:20;3.95;;;2.80;;
16450;SDS011;12243;42.708;23.310;2022-08-03T14:48:47;3.17;;;2.80;;
16450;SDS011;12243;42.708;23.310;2022-08-03T14:51:14;2.80;;;2.47;;
16450;SDS011;12243;42.708;23.310;2022-08-03T14:53:41;2.33;;;2.25;;
16450;SDS011;12243;42.708;23.310;2022-08-03T14:56:08;3.30;;;2.30;;
16450;SDS011;12243;42.708;23.310;2022-08-03T14:58:35;2.30;;;2.20;;